Driggs, ID (83422)

4:21 PM MDT on July 23, 2016 (GMT -0600)
Horseshoe Canyon | | Change Station

Elev 6115 ft 43.74 °N, 111.24 °W | Updated 5 seconds ago

Clear
Clear
77.7 °F
Feels Like 76 °F
N
4.5
Wind Variable Wind from SW
Gusts 7.4 mph

Today
High -- | Low -- °F
--% Chance of Precip.
Yesterday
High -- | Low -- °F
Precip. -- in
Pressure 30.03 in
Visibility 10.0 miles
Clouds Clear
Heat Index 76 °F
Dew Point 17 °F
Humidity 10%
Rainfall in
Snow Depth Not available.
6:05 AM 8:57 PM
Waning Gibbous, 82% visible
METAR KDIJ 232156Z AUTO 29012G16KT 10SM CLR 27/01 A3023 RMK AO2 SLP169 T02670006
Pressure 30.03 in
Visibility 10.0 miles
Clouds Clear
Heat Index 76 °F
Dew Point 17 °F
Humidity 10%
Rainfall in
Snow Depth Not available.
6:05 AM 8:57 PM
Waning Gibbous, 82% visible
METAR KDIJ 232156Z AUTO 29012G16KT 10SM CLR 27/01 A3023 RMK AO2 SLP169 T02670006

10-Day Weather Forecast

Almanac

Astronomy

Jul. 23, 2016 Rise Set
Actual Time
Civil Twilight
Nautical Twilight
Astronomical Twilight
Moon
Length of Visible Light
Length of Day
Tomorrow will be .
, % of the Moon is Illuminated

Today's Extremes

State Highs State Lows

Community

WunderPhotos

Upload Photos

1,926,948 photos uploaded!

WunderBlog® & News

Nearby

Air Quality

  Air Quality AQ Index Pollutant
Not available.

Snow Depth

Station Depth Elevation

Earthquake Activity

City Distance Mag. Time & Date
Minimum magnitude displayed is 2.5.

Coastal Water Temperatures

Place Temperature

Stations

Nearby Weather Stations

Station Location Temp. Windchill Dew Point Humidity Wind Precip. Elev Updated Type
                   

Watches & Warnings

There are currently no watches in effect.